Time;durP1;ratioP1;P1;durP2;ratioP2;P2;SDS_P1;SDS_P2;PMS_P1;PMS_P2;Temp;Humidity;BMP_temperature;BMP_pressure;BME280_temperature;BME280_humidity;BME280_pressure;Samples;Min_cycle;Max_cycle;Signal;HPM_P1;HPM_P2
2023/05/15 00:00:10;;;;;;;8.63;5.18;;;10.90;75.90;;;;;;5063174;28;20119;-82
2023/05/15 00:02:38;;;;;;;9.95;4.75;;;10.90;76.10;;;;;;5065590;28;20030;-82
2023/05/15 00:05:07;;;;;;;8.77;5.47;;;10.80;76.30;;;;;;5077946;28;20028;-82
2023/05/15 00:07:34;;;;;;;8.23;5.25;;;10.80;76.40;;;;;;5098692;28;20126;-82
2023/05/15 00:10:00;;;;;;;8.32;6.10;;;10.80;76.50;;;;;;5117869;28;20012;-82
2023/05/15 00:12:26;;;;;;;10.15;6.38;;;10.80;76.40;;;;;;5085451;28;20545;-83
2023/05/15 00:14:52;;;;;;;11.25;6.93;;;10.70;76.60;;;;;;5082834;28;20012;-82
2023/05/15 00:17:18;;;;;;;11.80;6.88;;;10.70;76.60;;;;;;5098383;28;20031;-81
2023/05/15 00:19:44;;;;;;;10.00;6.45;;;10.70;76.80;;;;;;5095516;28;20016;-82
2023/05/15 00:22:10;;;;;;;11.93;7.03;;;10.70;76.90;;;;;;5103192;28;20050;-82
2023/05/15 00:24:36;;;;;;;13.57;7.50;;;10.70;77.00;;;;;;5099663;28;20016;-81
2023/05/15 00:27:03;;;;;;;13.55;7.63;;;10.70;77.00;;;;;;5099047;28;20114;-83
2023/05/15 00:29:29;;;;;;;9.63;7.13;;;10.60;77.10;;;;;;5097968;28;20008;-84
2023/05/15 00:31:54;;;;;;;8.73;7.18;;;10.60;77.20;;;;;;5112864;28;20027;-83
2023/05/15 00:34:21;;;;;;;13.55;8.30;;;10.60;77.40;;;;;;5105978;28;20031;-81
2023/05/15 00:36:47;;;;;;;19.50;10.07;;;10.60;77.50;;;;;;5108681;28;20019;-83
2023/05/15 00:39:13;;;;;;;32.85;11.05;;;10.60;77.70;;;;;;5095065;28;20016;-83
2023/05/15 00:41:40;;;;;;;13.82;8.52;;;10.60;78.00;;;;;;5094864;28;20645;-83
2023/05/15 00:44:07;;;;;;;19.05;9.60;;;10.60;78.20;;;;;;5095272;28;20096;-83
2023/05/15 00:46:35;;;;;;;14.32;9.27;;;10.60;78.30;;;;;;5095712;28;20028;-82
2023/05/15 00:49:04;;;;;;;13.32;9.15;;;10.50;78.40;;;;;;5095945;28;20489;-82
2023/05/15 00:51:30;;;;;;;12.85;9.98;;;10.50;79.20;;;;;;5072571;28;20044;-82
2023/05/15 00:53:57;;;;;;;12.40;9.38;;;10.50;78.80;;;;;;5103704;28;20459;-84
2023/05/15 00:56:24;;;;;;;17.55;11.23;;;10.50;78.90;;;;;;5082909;28;20024;-82
2023/05/15 00:58:52;;;;;;;16.15;9.50;;;10.50;79.60;;;;;;5105133;28;20016;-80
2023/05/15 01:01:18;;;;;;;14.00;9.15;;;10.50;78.90;;;;;;5103936;28;20066;-82
2023/05/15 01:03:45;;;;;;;11.45;8.65;;;10.40;79.00;;;;;;5101005;28;20020;-82
2023/05/15 01:06:11;;;;;;;14.90;10.25;;;10.40;79.20;;;;;;5096282;28;20111;-81
2023/05/15 01:08:45;;;;;;;13.98;9.70;;;10.40;79.40;;;;;;5096184;28;20107;-81
2023/05/15 01:11:13;;;;;;;17.25;9.52;;;10.30;79.50;;;;;;5077595;28;20035;-83
2023/05/15 01:13:39;;;;;;;17.55;9.90;;;10.30;79.60;;;;;;5077013;28;20027;-80
2023/05/15 01:16:06;;;;;;;14.02;10.10;;;10.30;79.60;;;;;;5075902;28;20036;-82
2023/05/15 01:18:32;;;;;;;17.40;10.25;;;10.30;79.90;;;;;;5080402;28;20102;-81
2023/05/15 01:21:08;;;;;;;15.45;10.65;;;10.30;80.00;;;;;;5091091;28;20111;-81
2023/05/15 01:24:13;;;;;;;14.80;9.48;;;10.20;80.10;;;;;;5085216;28;20027;-82
2023/05/15 01:27:09;;;;;;;14.48;9.82;;;10.20;80.30;;;;;;5092889;28;20036;-80
2023/05/15 01:29:51;;;;;;;13.27;9.43;;;10.20;80.60;;;;;;5079598;28;20102;-82
2023/05/15 01:32:34;;;;;;;12.63;9.68;;;10.20;80.60;;;;;;5097893;28;20321;-79
2023/05/15 01:35:08;;;;;;;13.65;9.82;;;10.20;80.90;;;;;;5086157;28;20024;-83
2023/05/15 01:37:40;;;;;;;13.70;9.60;;;10.10;81.00;;;;;;5104275;28;20020;-82
2023/05/15 01:40:08;;;;;;;14.70;9.88;;;10.20;81.10;;;;;;5094297;28;20036;-83
2023/05/15 01:42:37;;;;;;;12.52;9.68;;;10.10;81.20;;;;;;5094391;28;20103;-83
2023/05/15 01:45:07;;;;;;;13.40;9.00;;;10.20;81.50;;;;;;5094219;28;20537;-82
2023/05/15 01:47:59;;;;;;;15.85;9.55;;;10.20;81.40;;;;;;5082848;28;20501;-83
2023/05/15 01:50:26;;;;;;;13.48;9.32;;;10.20;81.20;;;;;;5076589;28;20111;-80
2023/05/15 01:52:57;;;;;;;10.85;9.35;;;10.20;81.20;;;;;;5093325;28;20074;-82
2023/05/15 01:55:26;;;;;;;17.40;10.15;;;10.30;81.30;;;;;;5093366;28;20102;-81
2023/05/15 01:57:52;;;;;;;17.45;10.25;;;10.30;81.40;;;;;;5096260;28;20020;-80
2023/05/15 02:00:19;;;;;;;15.65;11.10;;;10.30;81.30;;;;;;5101842;28;20023;-80
2023/05/15 02:02:46;;;;;;;20.80;12.30;;;10.30;81.20;;;;;;5106460;28;20036;-80
2023/05/15 02:05:13;;;;;;;18.92;12.02;;;10.40;81.20;;;;;;5083816;28;20385;-81
2023/05/15 02:07:42;;;;;;;16.40;11.70;;;10.40;81.10;;;;;;5090332;28;20048;-82
2023/05/15 02:10:12;;;;;;;20.48;11.98;;;10.40;80.90;;;;;;5073826;28;20051;-82
2023/05/15 02:12:42;;;;;;;21.27;12.13;;;10.50;81.10;;;;;;5079966;28;20559;-80
2023/05/15 02:15:12;;;;;;;19.75;11.27;;;10.50;81.10;;;;;;5088177;28;20026;-82
2023/05/15 02:17:38;;;;;;;17.17;11.70;;;10.50;80.90;;;;;;5093567;28;20016;-79
2023/05/15 02:20:05;;;;;;;14.38;11.00;;;10.60;80.70;;;;;;5093566;28;20035;-82
2023/05/15 02:22:31;;;;;;;15.00;9.90;;;10.60;80.40;;;;;;5061345;28;20024;-82
2023/05/15 02:24:57;;;;;;;12.52;10.63;;;10.70;80.30;;;;;;5085341;28;20078;-83
2023/05/15 02:27:26;;;;;;;11.90;9.82;;;10.80;80.20;;;;;;5086675;28;20036;-82
2023/05/15 02:30:11;;;;;;;18.52;10.77;;;10.80;80.00;;;;;;5093488;28;20436;-83
2023/05/15 02:33:07;;;;;;;16.23;9.90;;;10.90;79.70;;;;;;5093127;28;20023;-82
2023/05/15 02:35:36;;;;;;;21.63;10.60;;;10.90;79.60;;;;;;5093460;28;20020;-82
2023/05/15 02:38:08;;;;;;;15.15;9.50;;;11.00;79.60;;;;;;5093836;28;20107;-83
2023/05/15 02:40:36;;;;;;;22.08;14.57;;;11.00;79.30;;;;;;5074854;28;20567;-83
2023/05/15 02:43:02;;;;;;;14.80;9.57;;;11.20;79.30;;;;;;5064971;28;20036;-82
2023/05/15 02:45:29;;;;;;;12.07;8.52;;;11.30;78.80;;;;;;5065063;28;20421;-83
2023/05/15 02:47:56;;;;;;;13.73;8.02;;;11.40;78.30;;;;;;5070943;28;20025;-83
2023/05/15 02:50:22;;;;;;;15.65;8.07;;;11.60;77.80;;;;;;5070523;28;20449;-83
2023/05/15 02:52:48;;;;;;;7.47;6.03;;;11.70;77.10;;;;;;5073972;28;20020;-82
2023/05/15 02:55:14;;;;;;;8.32;6.38;;;11.80;76.30;;;;;;5072006;28;20029;-83
2023/05/15 02:57:40;;;;;;;14.73;7.88;;;11.90;75.60;;;;;;5069280;28;20073;-84
2023/05/15 03:00:10;;;;;;;11.13;6.68;;;11.90;75.40;;;;;;5066374;28;20159;-83
2023/05/15 03:02:37;;;;;;;6.07;5.38;;;12.00;75.10;;;;;;5056534;28;20021;-84
2023/05/15 03:05:02;;;;;;;7.95;6.50;;;12.00;75.00;;;;;;5075833;28;20016;-83
2023/05/15 03:07:28;;;;;;;8.82;6.57;;;12.00;74.90;;;;;;5074134;28;20053;-82
2023/05/15 03:09:54;;;;;;;7.10;5.85;;;12.10;74.60;;;;;;5071674;28;20039;-83
2023/05/15 03:12:20;;;;;;;8.07;5.47;;;12.20;74.30;;;;;;5074108;28;20382;-83
2023/05/15 03:14:46;;;;;;;10.85;8.48;;;12.20;74.00;;;;;;5054737;28;20845;-83
2023/05/15 03:17:12;;;;;;;8.07;6.63;;;12.30;74.30;;;;;;5060293;28;20586;-84
2023/05/15 03:19:38;;;;;;;7.25;5.57;;;12.30;73.90;;;;;;5080000;28;20028;-83
2023/05/15 03:22:04;;;;;;;14.00;6.68;;;12.40;73.40;;;;;;5084567;28;20509;-83
2023/05/15 03:24:29;;;;;;;10.20;7.00;;;12.50;73.30;;;;;;5098341;28;20024;-84
2023/05/15 03:26:55;;;;;;;10.27;6.35;;;12.60;73.90;;;;;;5098116;28;20030;-82
2023/05/15 03:29:21;;;;;;;6.95;6.00;;;12.70;72.90;;;;;;5095970;28;20416;-84
2023/05/15 03:31:47;;;;;;;9.52;6.63;;;12.70;72.20;;;;;;5090120;28;20035;-83
2023/05/15 03:34:13;;;;;;;9.68;6.88;;;12.80;71.80;;;;;;5097371;28;20017;-83
2023/05/15 03:36:39;;;;;;;11.48;6.93;;;12.90;71.50;;;;;;5097572;28;20027;-83
2023/05/15 03:39:05;;;;;;;8.57;6.32;;;13.00;71.20;;;;;;5097952;28;20035;-82
2023/05/15 03:41:31;;;;;;;15.15;8.15;;;13.00;71.10;;;;;;5097562;28;20028;-84
2023/05/15 03:43:57;;;;;;;14.50;8.77;;;13.10;70.80;;;;;;5086059;28;20020;-84
2023/05/15 03:46:22;;;;;;;11.55;7.80;;;13.20;70.80;;;;;;5094101;28;20043;-81
2023/05/15 03:48:48;;;;;;;22.75;13.25;;;13.20;70.90;;;;;;5091911;28;20099;-81
2023/05/15 03:51:14;;;;;;;14.95;8.25;;;13.20;70.90;;;;;;5096117;28;20063;-82
2023/05/15 03:53:40;;;;;;;11.05;7.68;;;13.20;70.90;;;;;;5097586;28;20024;-80
2023/05/15 03:56:06;;;;;;;30.48;19.23;;;13.30;70.40;;;;;;5101380;28;20008;-81
2023/05/15 03:58:32;;;;;;;13.38;8.15;;;13.30;70.60;;;;;;5106294;28;20075;-81
2023/05/15 04:00:58;;;;;;;13.70;7.47;;;13.30;70.20;;;;;;5093718;28;20032;-83
2023/05/15 04:03:23;;;;;;;12.57;8.35;;;13.20;69.90;;;;;;5091020;28;20020;-83
2023/05/15 04:05:50;;;;;;;13.00;6.78;;;13.20;70.00;;;;;;5095558;28;20043;-81
2023/05/15 04:08:16;;;;;;;13.75;7.80;;;13.30;70.20;;;;;;5077381;28;20492;-84
2023/05/15 04:10:42;;;;;;;10.25;7.40;;;13.40;70.10;;;;;;5095467;28;20028;-82
2023/05/15 04:13:08;;;;;;;11.95;7.43;;;13.50;69.40;;;;;;5094892;28;20100;-82
2023/05/15 04:15:35;;;;;;;12.32;7.30;;;13.60;69.90;;;;;;5092697;28;20035;-81
2023/05/15 04:18:01;;;;;;;11.23;7.90;;;13.60;68.80;;;;;;5095359;28;20027;-82
2023/05/15 04:20:27;;;;;;;11.10;7.47;;;13.70;68.40;;;;;;5086923;28;20488;-82
2023/05/15 04:22:53;;;;;;;10.85;6.97;;;13.70;68.70;;;;;;5097174;28;20023;-82
2023/05/15 04:25:19;;;;;;;16.50;7.78;;;13.70;68.20;;;;;;5095443;28;20028;-83
2023/05/15 04:27:45;;;;;;;12.85;7.22;;;13.80;68.00;;;;;;5093857;28;20023;-82
2023/05/15 04:30:12;;;;;;;12.52;8.07;;;13.90;67.90;;;;;;5094976;28;20024;-83
2023/05/15 04:32:38;;;;;;;10.48;7.30;;;13.90;67.70;;;;;;5094896;28;20024;-81
2023/05/15 04:35:08;;;;;;;11.25;7.90;;;14.00;67.70;;;;;;5095543;28;20024;-81
2023/05/15 04:37:35;;;;;;;11.27;8.00;;;14.10;67.30;;;;;;5096789;28;20088;-82
2023/05/15 04:40:01;;;;;;;11.37;8.10;;;14.10;67.30;;;;;;5095939;28;20546;-82
2023/05/15 04:42:27;;;;;;;12.55;7.93;;;14.10;67.00;;;;;;5077004;28;20024;-80
2023/05/15 04:44:53;;;;;;;10.98;8.27;;;14.20;67.20;;;;;;5094842;28;20046;-81
2023/05/15 04:47:19;;;;;;;14.18;7.30;;;14.30;67.10;;;;;;5094286;28;20103;-83
2023/05/15 04:49:46;;;;;;;12.63;7.85;;;14.40;66.80;;;;;;5091167;28;20108;-82
2023/05/15 04:52:13;;;;;;;10.82;7.10;;;14.50;66.50;;;;;;5088652;28;20142;-83
2023/05/15 04:54:38;;;;;;;15.18;7.05;;;14.80;66.10;;;;;;5092072;28;20431;-83
2023/05/15 04:57:05;;;;;;;11.07;7.20;;;15.50;64.60;;;;;;5096714;28;20024;-84
2023/05/15 04:59:31;;;;;;;15.83;7.03;;;16.60;62.50;;;;;;5087742;28;20016;-83
2023/05/15 05:01:57;;;;;;;8.93;7.00;;;17.80;59.50;;;;;;5097827;28;20439;-82
2023/05/15 05:04:23;;;;;;;5.47;4.65;;;18.80;56.00;;;;;;5111791;28;20028;-82
2023/05/15 05:06:49;;;;;;;8.40;5.45;;;19.50;53.40;;;;;;5114041;28;20044;-82
2023/05/15 05:09:15;;;;;;;6.40;5.10;;;19.80;52.30;;;;;;5097898;28;20048;-83
2023/05/15 05:11:44;;;;;;;15.00;8.55;;;20.30;50.90;;;;;;5094068;28;20067;-82
2023/05/15 05:14:10;;;;;;;11.18;5.50;;;20.80;50.20;;;;;;5090307;28;20016;-82
2023/05/15 05:16:36;;;;;;;10.55;5.15;;;21.40;49.20;;;;;;5094167;28;20039;-82
2023/05/15 05:19:02;;;;;;;8.20;4.00;;;22.30;47.80;;;;;;5091504;28;20105;-83
2023/05/15 05:21:29;;;;;;;6.00;4.10;;;22.70;45.70;;;;;;5091868;28;20035;-85
2023/05/15 05:23:55;;;;;;;9.73;4.93;;;22.70;45.10;;;;;;5097145;28;20079;-84
2023/05/15 05:26:21;;;;;;;6.55;4.43;;;23.00;44.60;;;;;;5076295;28;20051;-84
2023/05/15 05:28:47;;;;;;;5.75;4.38;;;23.20;44.30;;;;;;5094987;28;20439;-85
2023/05/15 05:31:13;;;;;;;7.45;4.00;;;23.90;43.50;;;;;;5077221;28;20047;-81
2023/05/15 05:33:39;;;;;;;5.72;3.50;;;24.30;42.40;;;;;;5095207;28;20018;-85
2023/05/15 05:36:06;;;;;;;5.27;3.07;;;25.20;41.60;;;;;;5096522;28;20103;-84
2023/05/15 05:38:32;;;;;;;10.93;3.78;;;26.20;40.20;;;;;;5095944;28;20536;-85
2023/05/15 05:41:00;;;;;;;5.85;3.67;;;26.90;39.00;;;;;;5091416;28;20098;-82
2023/05/15 05:43:26;;;;;;;6.18;2.72;;;27.50;38.20;;;;;;5101323;28;20024;-84
2023/05/15 05:45:52;;;;;;;4.05;3.00;;;27.80;37.30;;;;;;5115511;28;20069;-81
2023/05/15 05:48:18;;;;;;;8.95;2.78;;;28.00;37.10;;;;;;5109985;28;20025;-80
2023/05/15 05:50:44;;;;;;;7.85;2.80;;;27.90;36.70;;;;;;5103770;28;20027;-82
2023/05/15 05:53:10;;;;;;;6.57;2.70;;;28.20;36.50;;;;;;5109972;28;20026;-84
2023/05/15 05:55:36;;;;;;;6.13;2.75;;;28.40;35.80;;;;;;5107345;28;20430;-81
2023/05/15 05:58:02;;;;;;;4.88;3.05;;;28.90;35.70;;;;;;5104601;28;20034;-81
2023/05/15 06:00:28;;;;;;;5.00;1.90;;;29.00;35.00;;;;;;5103034;28;20032;-81
2023/05/15 06:02:58;;;;;;;4.13;1.92;;;29.00;34.60;;;;;;5106229;28;20511;-82
2023/05/15 06:05:27;;;;;;;5.88;4.07;;;28.60;34.60;;;;;;5102118;28;20032;-82
2023/05/15 06:07:53;;;;;;;4.18;1.92;;;28.50;35.30;;;;;;5106702;28;20327;-80
2023/05/15 06:10:20;;;;;;;7.47;2.20;;;28.30;35.20;;;;;;5099456;28;20068;-81
2023/05/15 06:12:46;;;;;;;3.35;1.75;;;28.40;35.40;;;;;;5106864;28;20061;-82
2023/05/15 06:15:15;;;;;;;4.22;1.77;;;28.80;35.00;;;;;;5103647;28;20382;-80
2023/05/15 06:17:41;;;;;;;11.23;6.22;;;30.20;34.40;;;;;;5105562;28;20024;-82
2023/05/15 06:20:08;;;;;;;6.72;3.28;;;31.30;33.70;;;;;;5104830;28;20042;-81
2023/05/15 06:22:38;;;;;;;5.47;2.33;;;32.10;32.70;;;;;;5078504;28;20035;-81
2023/05/15 06:25:04;;;;;;;5.15;2.33;;;30.50;31.90;;;;;;5093229;28;20102;-83
2023/05/15 06:27:31;;;;;;;3.72;2.22;;;27.60;34.20;;;;;;5074429;28;20020;-80
2023/05/15 06:29:57;;;;;;;7.53;1.80;;;25.80;36.40;;;;;;5075322;28;20028;-83
2023/05/15 06:32:23;;;;;;;6.68;2.25;;;26.10;37.30;;;;;;5093133;28;20397;-80
2023/05/15 06:34:49;;;;;;;5.50;2.20;;;27.30;36.40;;;;;;5093231;28;20027;-81
2023/05/15 06:37:15;;;;;;;2.08;1.52;;;26.70;34.80;;;;;;5092518;28;20024;-81
2023/05/15 06:39:41;;;;;;;6.18;1.92;;;25.00;36.80;;;;;;5092489;28;20028;-81
2023/05/15 06:42:09;;;;;;;4.03;1.48;;;24.30;38.20;;;;;;5093675;28;20073;-81
2023/05/15 06:44:35;;;;;;;3.67;1.65;;;24.40;38.50;;;;;;5093192;28;20016;-82
2023/05/15 06:47:01;;;;;;;6.45;1.80;;;24.60;37.80;;;;;;5093736;28;20563;-81
2023/05/15 06:49:27;;;;;;;6.90;2.63;;;24.70;38.30;;;;;;5096299;28;20024;-81
2023/05/15 06:51:54;;;;;;;1.40;1.30;;;26.40;37.30;;;;;;5097659;28;20107;-80
2023/05/15 06:54:20;;;;;;;6.88;2.80;;;27.30;34.80;;;;;;5101352;28;20069;-80
2023/05/15 06:56:46;;;;;;;5.67;1.97;;;26.30;35.20;;;;;;5102832;28;20028;-82
2023/05/15 06:59:12;;;;;;;4.70;1.63;;;26.20;35.90;;;;;;5096644;28;20040;-82
2023/05/15 07:01:38;;;;;;;9.02;4.00;;;26.70;35.80;;;;;;5094763;28;20038;-81
2023/05/15 07:04:04;;;;;;;10.68;7.65;;;27.10;34.90;;;;;;5094525;28;20103;-80
2023/05/15 07:06:30;;;;;;;7.97;5.93;;;27.10;35.50;;;;;;5094983;28;20489;-81
2023/05/15 07:08:59;;;;;;;4.65;1.83;;;27.60;35.20;;;;;;5085770;28;20024;-81
2023/05/15 07:11:26;;;;;;;9.80;3.78;;;26.60;34.60;;;;;;5087468;28;20032;-83
2023/05/15 07:13:52;;;;;;;4.70;2.10;;;25.80;36.50;;;;;;5092788;28;20028;-81
2023/05/15 07:16:18;;;;;;;3.37;1.47;;;25.90;36.30;;;;;;5075398;28;20038;-83
2023/05/15 07:18:44;;;;;;;4.22;1.85;;;26.40;36.10;;;;;;5094093;28;20689;-81
2023/05/15 07:21:10;;;;;;;3.47;1.00;;;25.40;35.60;;;;;;5092009;28;20028;-82
2023/05/15 07:23:36;;;;;;;6.90;2.80;;;23.60;37.90;;;;;;5104615;28;20021;-82
2023/05/15 07:26:02;;;;;;;6.78;2.95;;;23.10;40.30;;;;;;5107390;28;20028;-81
2023/05/15 07:28:27;;;;;;;5.03;2.30;;;23.30;39.90;;;;;;5092304;28;20028;-82
2023/05/15 07:30:53;;;;;;;3.78;2.35;;;23.30;39.80;;;;;;5092247;28;20532;-83
2023/05/15 07:33:19;;;;;;;3.70;1.80;;;24.10;40.00;;;;;;5092534;28;20016;-82
2023/05/15 07:35:45;;;;;;;1.85;1.50;;;24.50;37.80;;;;;;5092314;28;20046;-82
2023/05/15 07:38:11;;;;;;;2.00;1.55;;;25.80;37.20;;;;;;5093277;28;20031;-83
2023/05/15 07:40:37;;;;;;;2.88;1.65;;;27.70;35.10;;;;;;5078099;28;20439;-81
2023/05/15 07:43:03;;;;;;;6.22;1.85;;;28.20;34.40;;;;;;5097402;28;20100;-81
2023/05/15 07:45:29;;;;;;;5.60;1.50;;;28.20;33.90;;;;;;5094178;28;20097;-81
2023/05/15 07:47:55;;;;;;;2.00;1.40;;;27.70;33.70;;;;;;5095489;28;20378;-82
2023/05/15 07:50:20;;;;;;;5.45;1.52;;;26.80;33.70;;;;;;5096426;28;20069;-82
2023/05/15 07:52:46;;;;;;;2.78;1.55;;;25.90;35.80;;;;;;5094561;28;20063;-81
2023/05/15 07:55:12;;;;;;;5.30;1.52;;;25.30;36.60;;;;;;5095748;28;20085;-82
2023/05/15 07:57:41;;;;;;;2.83;1.70;;;24.40;37.30;;;;;;5095479;28;20025;-82
2023/05/15 08:00:12;;;;;;;4.40;1.40;;;25.40;37.00;;;;;;5095352;28;20028;-82
2023/05/15 08:02:39;;;;;;;6.05;1.52;;;25.70;35.60;;;;;;5095991;28;20081;-83
2023/05/15 08:05:05;;;;;;;;;;;27.30;35.50;;;;;;5077768;28;20358;-82
2023/05/15 08:07:32;;;;;;;;;;;29.70;35.00;;;;;;5096109;28;19985;-82
2023/05/15 08:09:59;;;;;;;5.72;2.53;;;31.90;33.20;;;;;;5096395;28;19974;-81
2023/05/15 08:12:25;;;;;;;3.30;1.80;;;33.30;30.60;;;;;;5094339;28;20518;-80
2023/05/15 08:14:53;;;;;;;6.53;2.35;;;34.50;29.90;;;;;;5095492;28;20032;-83
2023/05/15 08:17:20;;;;;;;4.35;1.73;;;34.90;29.10;;;;;;5076893;28;20106;-84
2023/05/15 08:19:47;;;;;;;3.95;1.38;;;34.70;29.30;;;;;;5095022;28;20353;-83
2023/05/15 08:22:13;;;;;;;2.22;1.80;;;33.40;29.00;;;;;;5080630;28;20056;-81
2023/05/15 08:24:40;;;;;;;6.43;2.70;;;33.40;29.10;;;;;;5095379;28;20102;-81
2023/05/15 08:27:07;;;;;;;4.18;1.65;;;34.50;29.00;;;;;;5095267;28;20042;-82
2023/05/15 08:29:36;;;;;;;4.78;1.73;;;35.50;28.30;;;;;;5076936;28;20020;-82
2023/05/15 08:32:02;;;;;;;6.30;1.75;;;36.00;28.40;;;;;;5095762;28;20396;-83
2023/05/15 08:34:29;;;;;;;2.75;1.55;;;38.40;27.30;;;;;;5095343;28;20024;-82
2023/05/15 08:36:55;;;;;;;6.78;2.10;;;;;;;;;;5095639;28;20496;-82
2023/05/15 08:39:22;;;;;;;7.95;4.35;;;38.80;27.70;;;;;;5094117;28;20028;-82
2023/05/15 08:42:04;;;;;;;7.78;2.30;;;39.00;27.00;;;;;;5094953;28;20099;-81
2023/05/15 08:44:30;;;;;;;7.50;2.25;;;38.90;26.90;;;;;;5095588;28;20042;-82
2023/05/15 08:46:56;;;;;;;4.97;1.38;;;39.90;26.50;;;;;;5094760;28;20032;-82
2023/05/15 08:49:46;;;;;;;5.05;1.75;;;40.40;26.30;;;;;;5094646;28;20447;-84
2023/05/15 08:52:12;;;;;;;4.03;2.08;;;40.80;26.60;;;;;;5094461;28;20031;-84
2023/05/15 08:54:39;;;;;;;4.15;1.42;;;41.30;25.80;;;;;;5094154;28;20020;-83
2023/05/15 08:57:07;;;;;;;2.22;1.38;;;41.10;25.10;;;;;;5094221;28;20028;-83
2023/05/15 08:59:37;;;;;;;5.80;2.45;;;41.10;25.50;;;;;;5092935;28;20446;-84
2023/05/15 09:02:03;;;;;;;2.90;1.13;;;40.80;25.50;;;;;;5094183;28;20039;-84
2023/05/15 09:04:29;;;;;;;5.70;2.78;;;40.20;25.10;;;;;;5094495;28;20017;-84
2023/05/15 09:06:57;;;;;;;4.82;1.67;;;39.00;25.90;;;;;;5094673;28;20048;-83
2023/05/15 09:09:24;;;;;;;5.60;2.30;;;38.20;26.40;;;;;;5095120;28;20374;-84
2023/05/15 09:11:49;;;;;;;;;;;37.90;26.40;;;;;;5095211;28;20023;-83
2023/05/15 09:14:15;;;;;;;4.97;1.60;;;38.00;26.90;;;;;;5095271;28;20361;-84
2023/05/15 09:16:41;;;;;;;9.75;2.22;;;38.70;26.10;;;;;;5078363;28;20073;-84
2023/05/15 09:19:07;;;;;;;4.90;1.88;;;39.40;25.90;;;;;;5097288;28;20028;-84
2023/05/15 09:21:34;;;;;;;3.38;1.27;;;39.60;25.70;;;;;;5090836;28;20071;-83
2023/05/15 09:24:16;;;;;;;;;;;39.40;25.20;;;;;;5082003;28;20024;-83
2023/05/15 09:26:43;;;;;;;4.20;1.50;;;38.90;26.00;;;;;;5100746;28;20600;-85
2023/05/15 09:29:09;;;;;;;10.25;2.67;;;39.10;25.70;;;;;;5094267;28;20035;-84
2023/05/15 09:31:35;;;;;;;;;;;39.30;25.70;;;;;;5096297;28;20020;-84
2023/05/15 09:34:03;;;;;;;4.82;1.92;;;39.00;26.50;;;;;;5101944;28;20371;-85
2023/05/15 09:36:29;;;;;;;6.53;1.75;;;38.20;25.90;;;;;;5099436;28;20073;-83
2023/05/15 09:39:00;;;;;;;6.57;2.35;;;37.40;26.60;;;;;;5094976;28;20021;-83
2023/05/15 09:41:27;;;;;;;3.75;2.10;;;37.60;26.40;;;;;;5075037;28;20032;-85
2023/05/15 09:43:55;;;;;;;5.55;1.92;;;37.40;26.30;;;;;;5075388;28;20500;-86
2023/05/15 09:46:22;;;;;;;5.25;1.38;;;36.90;26.50;;;;;;5093247;28;20020;-83
2023/05/15 09:48:52;;;;;;;4.78;1.63;;;36.80;26.50;;;;;;5093273;28;20016;-83
2023/05/15 09:51:19;;;;;;;3.85;1.20;;;36.60;26.40;;;;;;5094097;28;20053;-84
2023/05/15 09:53:50;;;;;;;4.45;1.00;;;35.80;26.30;;;;;;5093737;28;20016;-82
2023/05/15 09:56:16;;;;;;;3.55;1.50;;;35.90;26.10;;;;;;5094398;28;20048;-85
2023/05/15 09:58:55;;;;;;;;;;;35.40;26.30;;;;;;5095650;28;20043;-84
2023/05/15 10:01:26;;;;;;;3.88;1.77;;;35.80;26.80;;;;;;5095727;28;19912;-84
2023/05/15 10:04:01;;;;;;;5.03;1.42;;;36.70;26.20;;;;;;5093434;28;20056;-83
2023/05/15 10:06:35;;;;;;;4.90;1.40;;;36.50;25.80;;;;;;5093241;28;20493;-85
2023/05/15 10:09:02;;;;;;;9.23;2.13;;;36.50;26.00;;;;;;5075516;28;20024;-83
2023/05/15 10:11:32;;;;;;;9.35;1.92;;;37.00;26.10;;;;;;5074392;28;20493;-85
2023/05/15 10:13:58;;;;;;;2.72;1.27;;;37.80;25.80;;;;;;5093439;28;20052;-85
2023/05/15 10:16:25;;;;;;;3.55;1.38;;;38.00;25.60;;;;;;5093399;28;20030;-84
2023/05/15 10:18:51;;;;;;;5.28;1.25;;;38.10;25.40;;;;;;5093362;28;20016;-83
2023/05/15 10:21:20;;;;;;;7.35;1.58;;;37.50;25.30;;;;;;5086480;28;20134;-85
2023/05/15 10:23:49;;;;;;;5.95;1.77;;;36.20;25.50;;;;;;5088875;28;20028;-83
2023/05/15 10:26:20;;;;;;;11.23;2.20;;;35.70;26.10;;;;;;5093516;28;20032;-82
2023/05/15 10:28:47;;;;;;;2.97;1.88;;;33.70;26.70;;;;;;5095772;28;20023;-83
2023/05/15 10:31:13;;;;;;;6.85;2.30;;;31.60;27.60;;;;;;5080576;28;20019;-84
2023/05/15 10:33:40;;;;;;;5.20;1.90;;;29.70;28.80;;;;;;5100851;28;20013;-84
2023/05/15 10:36:07;;;;;;;3.33;1.55;;;28.30;29.40;;;;;;5097804;28;20091;-82
2023/05/15 10:38:34;;;;;;;2.10;1.40;;;27.30;29.90;;;;;;5097537;28;20481;-83
2023/05/15 10:41:00;;;;;;;3.83;1.27;;;26.40;31.00;;;;;;5095157;28;20032;-83
2023/05/15 10:43:27;;;;;;;5.95;2.03;;;25.60;31.80;;;;;;5094590;28;20083;-83
2023/05/15 10:45:55;;;;;;;2.42;1.65;;;25.10;32.40;;;;;;5093512;28;20028;-83
2023/05/15 10:48:21;;;;;;;;;;;24.40;33.20;;;;;;5093052;28;20077;-80
2023/05/15 10:50:48;;;;;;;3.67;1.88;;;23.40;33.00;;;;;;5093120;28;19908;-82
2023/05/15 10:53:14;;;;;;;7.13;2.45;;;22.80;35.10;;;;;;5074677;28;20024;-81
2023/05/15 10:55:40;;;;;;;4.28;2.10;;;22.50;35.50;;;;;;5092495;28;20020;-83
2023/05/15 10:58:09;;;;;;;4.63;2.10;;;22.20;36.30;;;;;;5092405;28;20102;-83
2023/05/15 11:00:43;;;;;;;6.68;2.53;;;22.20;36.80;;;;;;5084183;28;20397;-82
2023/05/15 11:03:14;;;;;;;3.67;2.22;;;22.10;36.70;;;;;;5089918;28;20024;-81
2023/05/15 11:06:07;;;;;;;5.90;2.45;;;22.10;37.00;;;;;;5093537;28;20483;-83
2023/05/15 11:08:34;;;;;;;4.72;1.88;;;22.10;37.30;;;;;;5065588;28;20044;-81
2023/05/15 11:11:00;;;;;;;4.72;2.78;;;21.80;37.10;;;;;;5084842;28;20040;-82
2023/05/15 11:13:26;;;;;;;9.88;2.60;;;21.70;37.30;;;;;;5090036;28;20102;-80
2023/05/15 11:15:53;;;;;;;5.78;2.47;;;21.60;37.70;;;;;;5064476;28;20086;-82
2023/05/15 11:18:19;;;;;;;10.60;2.80;;;21.40;37.90;;;;;;5091989;28;20028;-83
2023/05/15 11:20:52;;;;;;;4.70;2.05;;;21.20;38.00;;;;;;5081054;28;20031;-81
2023/05/15 11:23:22;;;;;;;5.13;1.75;;;21.20;37.80;;;;;;5096657;28;20025;-82
2023/05/15 11:25:57;;;;;;;6.65;2.35;;;21.20;38.70;;;;;;5101167;28;20075;-82
2023/05/15 11:28:24;;;;;;;5.97;2.08;;;21.20;38.70;;;;;;5096006;28;20057;-82
2023/05/15 11:30:53;;;;;;;6.53;1.73;;;21.20;38.10;;;;;;5100282;28;20027;-82
2023/05/15 11:33:19;;;;;;;6.43;2.17;;;21.20;37.80;;;;;;5099976;28;20107;-82
2023/05/15 11:35:57;;;;;;;3.83;2.33;;;21.10;37.80;;;;;;5100818;28;20303;-82
2023/05/15 11:38:24;;;;;;;7.90;2.50;;;21.00;38.50;;;;;;5096502;28;20020;-82
2023/05/15 11:40:53;;;;;;;3.72;1.75;;;21.00;38.00;;;;;;5105798;28;20066;-82
2023/05/15 11:43:26;;;;;;;4.97;2.47;;;20.80;38.20;;;;;;5099977;28;20027;-82
2023/05/15 11:45:56;;;;;;;3.63;2.13;;;20.60;38.60;;;;;;5090249;28;20078;-81
2023/05/15 11:48:24;;;;;;;5.55;2.17;;;20.50;38.60;;;;;;5095536;28;20351;-82
2023/05/15 11:50:53;;;;;;;6.93;2.10;;;20.60;38.90;;;;;;5094194;28;20020;-82
2023/05/15 11:53:21;;;;;;;5.40;2.05;;;20.50;38.70;;;;;;5095937;28;20385;-82
2023/05/15 11:55:47;;;;;;;3.45;1.77;;;20.30;39.00;;;;;;5094161;28;20032;-82
2023/05/15 11:58:15;;;;;;;2.15;1.90;;;20.20;39.30;;;;;;5095405;28;20016;-82
2023/05/15 12:00:46;;;;;;;3.13;2.17;;;20.20;39.50;;;;;;5077543;28;20063;-80
2023/05/15 12:03:19;;;;;;;3.45;2.00;;;20.10;39.20;;;;;;5095470;28;20069;-83
2023/05/15 12:05:45;;;;;;;2.97;1.92;;;20.00;39.40;;;;;;5095215;28;20040;-81
2023/05/15 12:08:12;;;;;;;6.63;2.13;;;20.00;39.80;;;;;;5096197;28;20024;-80
2023/05/15 12:10:44;;;;;;;5.68;2.70;;;20.10;39.90;;;;;;5096408;28;20089;-82
2023/05/15 12:13:14;;;;;;;8.73;2.67;;;20.20;39.90;;;;;;5095608;28;20024;-81
2023/05/15 12:15:42;;;;;;;3.33;2.00;;;20.20;40.10;;;;;;5087901;28;20027;-80
2023/05/15 12:18:08;;;;;;;5.57;2.45;;;20.20;39.60;;;;;;5089641;28;20435;-80
2023/05/15 12:20:36;;;;;;;5.55;2.13;;;20.10;39.40;;;;;;5095327;28;20062;-81
2023/05/15 12:23:07;;;;;;;4.28;2.67;;;20.10;39.50;;;;;;5077353;28;20047;-82
2023/05/15 12:25:35;;;;;;;6.05;2.70;;;20.10;39.50;;;;;;5094904;28;20085;-83
2023/05/15 12:28:03;;;;;;;5.70;2.10;;;20.10;39.60;;;;;;5095415;28;20072;-84
2023/05/15 12:30:33;;;;;;;7.18;2.75;;;20.10;39.70;;;;;;5095616;28;20027;-82
2023/05/15 12:33:02;;;;;;;12.25;2.60;;;20.10;39.90;;;;;;5095702;28;20081;-79
2023/05/15 12:35:29;;;;;;;7.45;3.53;;;20.20;39.70;;;;;;5102930;28;20047;-82
2023/05/15 12:37:55;;;;;;;4.57;1.83;;;20.20;39.80;;;;;;5080550;28;20020;-81
2023/05/15 12:40:22;;;;;;;4.82;2.10;;;20.30;39.60;;;;;;5105786;28;20024;-81
2023/05/15 12:42:53;;;;;;;6.60;2.50;;;20.30;39.70;;;;;;5102884;28;20020;-80
2023/05/15 12:45:23;;;;;;;15.02;2.88;;;20.40;39.40;;;;;;5095528;28;20016;-82
2023/05/15 12:47:50;;;;;;;2.88;2.00;;;20.30;39.60;;;;;;5094852;28;20473;-81